Time;durP1;ratioP1;P1;durP2;ratioP2;P2;SDS_P1;SDS_P2;PMS_P1;PMS_P2;Temp;Humidity;BMP_temperature;BMP_pressure;BME280_temperature;BME280_humidity;BME280_pressure;Samples;Min_cycle;Max_cycle;Signal;HPM_P1;HPM_P2
2022/05/02 00:01:36;;;;;;;6.40;4.10;;;11.90;94.30;;;;;;5031273;28;20231;-76
2022/05/02 00:04:02;;;;;;;9.70;3.70;;;11.90;94.40;;;;;;5049373;28;20202;-77
2022/05/02 00:06:27;;;;;;;4.10;3.70;;;11.80;94.60;;;;;;5031357;28;20185;-75
2022/05/02 00:08:53;;;;;;;6.27;3.43;;;11.90;94.40;;;;;;5058008;28;20577;-78
2022/05/02 00:11:18;;;;;;;7.40;3.80;;;11.90;94.30;;;;;;5027911;28;20206;-77
2022/05/02 00:13:44;;;;;;;3.27;3.03;;;11.80;94.30;;;;;;5052146;28;20212;-77
2022/05/02 00:16:09;;;;;;;4.87;3.33;;;11.80;94.40;;;;;;5035285;28;20286;-76
2022/05/02 00:18:35;;;;;;;4.37;3.97;;;11.80;94.70;;;;;;5037293;28;20190;-78
2022/05/02 00:21:01;;;;;;;4.87;3.33;;;11.80;94.80;;;;;;5029596;28;20207;-75
2022/05/02 00:23:27;;;;;;;6.63;3.57;;;11.80;94.90;;;;;;5052542;28;20192;-76
2022/05/02 00:25:52;;;;;;;3.80;3.50;;;11.70;95.00;;;;;;5032388;28;20203;-77
2022/05/02 00:28:17;;;;;;;4.20;3.80;;;11.80;95.00;;;;;;5046424;28;20232;-76
2022/05/02 00:30:43;;;;;;;3.97;3.40;;;11.80;94.90;;;;;;5046264;28;20211;-76
2022/05/02 00:33:09;;;;;;;4.00;3.57;;;11.90;94.70;;;;;;5052145;28;20202;-75
2022/05/02 00:35:35;;;;;;;4.10;3.67;;;11.90;94.70;;;;;;5038066;28;20230;-74
2022/05/02 00:38:00;;;;;;;5.13;3.77;;;11.90;94.80;;;;;;5055061;28;20228;-77
2022/05/02 00:40:26;;;;;;;5.43;3.43;;;11.80;94.60;;;;;;5038798;28;20211;-77
2022/05/02 00:42:52;;;;;;;6.27;3.63;;;11.70;95.20;;;;;;5060905;28;20201;-76
2022/05/02 00:45:19;;;;;;;4.03;3.37;;;11.60;95.20;;;;;;5038763;28;20269;-77
2022/05/02 00:48:00;;;;;;;5.27;3.60;;;11.60;95.20;;;;;;5042794;28;20619;-76
2022/05/02 00:50:38;;;;;;;4.40;3.53;;;11.60;95.20;;;;;;5043436;28;20195;-78
2022/05/02 00:53:06;;;;;;;3.60;3.30;;;11.60;95.80;;;;;;5046490;28;20274;-74
2022/05/02 00:55:32;;;;;;;3.70;3.33;;;11.50;95.80;;;;;;5036684;28;20228;-76
2022/05/02 00:57:59;;;;;;;5.17;3.60;;;11.40;95.60;;;;;;5038978;28;20202;-75
2022/05/02 01:00:26;;;;;;;4.63;4.03;;;11.40;95.70;;;;;;5039352;28;20211;-76
2022/05/02 01:02:52;;;;;;;4.77;3.63;;;11.30;95.80;;;;;;5056129;28;20196;-77
2022/05/02 01:05:17;;;;;;;6.53;3.83;;;11.40;95.90;;;;;;5040164;28;20678;-78
2022/05/02 01:07:46;;;;;;;6.27;3.70;;;11.30;96.20;;;;;;5065931;28;20291;-78
2022/05/02 01:10:16;;;;;;;8.20;3.70;;;11.20;96.10;;;;;;5043691;28;20260;-73
2022/05/02 01:12:43;;;;;;;6.10;4.00;;;11.20;96.00;;;;;;5033975;28;20210;-75
2022/05/02 01:15:09;;;;;;;4.27;3.70;;;11.10;96.50;;;;;;5031696;28;20561;-69
2022/05/02 01:17:34;;;;;;;5.20;4.00;;;11.10;96.40;;;;;;5038625;28;20692;-70
2022/05/02 01:20:00;;;;;;;5.80;3.53;;;11.10;96.80;;;;;;5034877;28;20191;-72
2022/05/02 01:22:26;;;;;;;6.70;3.57;;;11.00;96.90;;;;;;5032884;28;20203;-71
2022/05/02 01:24:52;;;;;;;4.57;4.10;;;10.90;96.90;;;;;;5050000;28;20198;-71
2022/05/02 01:27:17;;;;;;;8.47;4.23;;;10.90;97.10;;;;;;5032695;28;20203;-74
2022/05/02 01:29:45;;;;;;;4.03;3.73;;;10.90;96.70;;;;;;5052072;28;20866;-75
2022/05/02 01:32:15;;;;;;;4.00;3.60;;;10.90;96.80;;;;;;5030672;28;20188;-73
2022/05/02 01:34:42;;;;;;;3.30;3.10;;;10.90;97.20;;;;;;5038843;28;20672;-71
2022/05/02 01:37:08;;;;;;;4.37;3.83;;;10.80;97.20;;;;;;5035277;28;20200;-71
2022/05/02 01:39:34;;;;;;;6.10;3.23;;;10.80;97.00;;;;;;5057154;28;20199;-70
2022/05/02 01:42:01;;;;;;;4.43;4.00;;;10.70;97.30;;;;;;5037096;28;20183;-70
2022/05/02 01:44:27;;;;;;;5.67;3.67;;;10.80;97.30;;;;;;5057778;28;20204;-72
2022/05/02 01:46:53;;;;;;;3.70;3.40;;;10.80;97.20;;;;;;5053565;28;20183;-70
2022/05/02 01:49:19;;;;;;;5.00;3.60;;;10.80;97.40;;;;;;5046054;28;20230;-71
2022/05/02 01:51:45;;;;;;;5.60;3.70;;;10.70;97.20;;;;;;5051786;28;20252;-75
2022/05/02 01:54:10;;;;;;;4.17;3.70;;;10.60;97.20;;;;;;5050440;28;20323;-75
2022/05/02 01:56:36;;;;;;;6.13;3.30;;;10.50;97.70;;;;;;5034681;28;20397;-68
2022/05/02 01:59:03;;;;;;;3.60;3.30;;;10.50;97.70;;;;;;5054882;28;20185;-70
2022/05/02 02:01:28;;;;;;;5.90;3.63;;;10.50;97.80;;;;;;5038926;28;20207;-69
2022/05/02 02:03:54;;;;;;;3.73;3.33;;;10.60;97.80;;;;;;5051728;28;20295;-70
2022/05/02 02:06:21;;;;;;;3.97;3.57;;;10.50;97.90;;;;;;5038630;28;20210;-68
2022/05/02 02:08:48;;;;;;;6.30;4.13;;;10.60;97.80;;;;;;5057035;28;20206;-69
2022/05/02 02:11:14;;;;;;;3.67;2.93;;;10.60;97.80;;;;;;5032412;28;20195;-69
2022/05/02 02:13:40;;;;;;;6.73;3.30;;;10.60;97.80;;;;;;5052882;28;20885;-68
2022/05/02 02:16:09;;;;;;;4.23;3.63;;;10.50;98.00;;;;;;5049218;28;20203;-68
2022/05/02 02:18:35;;;;;;;3.93;3.60;;;10.60;98.00;;;;;;5035090;28;20193;-68
2022/05/02 02:21:01;;;;;;;3.60;3.30;;;10.60;97.90;;;;;;5049218;28;20559;-68
2022/05/02 02:23:27;;;;;;;6.10;3.37;;;10.60;98.00;;;;;;5038346;28;20204;-67
2022/05/02 02:25:52;;;;;;;4.67;3.00;;;10.60;98.20;;;;;;5045140;28;20247;-68
2022/05/02 02:28:18;;;;;;;4.87;3.37;;;10.50;98.50;;;;;;5050969;28;20196;-67
2022/05/02 02:30:44;;;;;;;4.50;3.10;;;10.40;98.50;;;;;;5049004;28;20728;-67
2022/05/02 02:33:10;;;;;;;4.77;3.67;;;10.40;98.80;;;;;;5038927;28;21052;-67
2022/05/02 02:35:36;;;;;;;3.37;3.10;;;10.40;98.80;;;;;;5062278;28;20314;-66
2022/05/02 02:38:02;;;;;;;4.63;4.23;;;10.50;98.30;;;;;;5046317;28;20867;-66
2022/05/02 02:40:28;;;;;;;5.87;4.00;;;10.40;98.50;;;;;;5058781;28;20473;-67
2022/05/02 02:42:54;;;;;;;5.87;3.93;;;10.40;98.60;;;;;;5044570;28;20206;-67
2022/05/02 02:45:19;;;;;;;4.50;3.60;;;10.30;98.50;;;;;;5058959;28;20191;-67
2022/05/02 02:47:45;;;;;;;7.50;5.77;;;10.30;98.70;;;;;;5055048;28;20304;-67
2022/05/02 02:50:11;;;;;;;7.13;4.63;;;10.20;99.10;;;;;;5053407;28;20662;-67
2022/05/02 02:52:36;;;;;;;5.17;4.67;;;10.10;99.40;;;;;;5051781;28;20911;-66
2022/05/02 02:55:02;;;;;;;7.70;3.80;;;10.20;99.40;;;;;;5045167;28;20408;-66
2022/05/02 02:57:28;;;;;;;3.87;3.57;;;10.10;99.90;;;;;;5052934;28;20200;-67
2022/05/02 02:59:53;;;;;;;7.13;4.03;;;10.00;99.90;;;;;;5044199;28;20186;-67
2022/05/02 03:02:19;;;;;;;4.00;3.60;;;10.00;99.50;;;;;;5044948;28;20218;-67
2022/05/02 03:07:30;;;;;;;5.90;4.43;;;9.90;99.90;;;;;;5052338;28;20470;-68
2022/05/02 03:09:57;;;;;;;7.30;4.97;;;9.80;99.90;;;;;;5039444;28;20638;-67
2022/05/02 03:12:22;;;;;;;6.53;4.17;;;9.80;99.90;;;;;;5052957;28;20723;-67
2022/05/02 03:14:48;;;;;;;7.80;4.67;;;9.70;99.90;;;;;;5040009;28;20227;-67
2022/05/02 03:17:13;;;;;;;4.83;4.30;;;9.80;99.90;;;;;;5060767;28;20287;-67
2022/05/02 03:19:39;;;;;;;18.17;7.73;;;9.80;99.90;;;;;;5045736;28;20200;-67
2022/05/02 03:22:05;;;;;;;8.77;6.03;;;9.70;99.90;;;;;;5058769;28;20199;-67
2022/05/02 03:24:30;;;;;;;6.17;5.50;;;9.70;99.90;;;;;;5048403;28;20669;-68
2022/05/02 03:26:56;;;;;;;5.13;4.10;;;9.60;99.90;;;;;;5046631;28;20548;-68
2022/05/02 03:29:21;;;;;;;3.93;3.53;;;9.60;99.90;;;;;;5040581;28;20199;-67
2022/05/02 03:31:47;;;;;;;6.83;4.57;;;9.50;99.90;;;;;;5045564;28;20558;-66
2022/05/02 03:34:12;;;;;;;5.50;3.80;;;9.50;99.90;;;;;;5040994;28;20209;-66
2022/05/02 03:36:38;;;;;;;5.07;4.57;;;9.50;99.90;;;;;;5055721;28;20268;-67
2022/05/02 03:39:04;;;;;;;8.57;4.57;;;9.50;99.90;;;;;;5032840;28;20207;-66
2022/05/02 03:41:30;;;;;;;7.60;3.97;;;9.40;99.90;;;;;;5047661;28;20191;-66
2022/05/02 03:43:56;;;;;;;4.40;4.00;;;9.40;99.90;;;;;;5037690;28;20228;-68
2022/05/02 03:46:22;;;;;;;9.00;3.90;;;9.40;99.90;;;;;;5053871;28;20204;-67
2022/05/02 03:48:48;;;;;;;6.10;4.03;;;9.40;99.90;;;;;;5031460;28;20210;-69
2022/05/02 03:51:13;;;;;;;4.63;3.63;;;9.40;99.90;;;;;;5052680;28;20254;-68
2022/05/02 03:53:39;;;;;;;7.93;4.60;;;9.30;99.90;;;;;;5036074;28;20203;-68
2022/05/02 03:56:04;;;;;;;9.43;5.13;;;9.40;99.90;;;;;;5056406;28;20277;-68
2022/05/02 03:58:30;;;;;;;5.77;5.17;;;9.40;99.90;;;;;;5037980;28;20195;-66
2022/05/02 04:00:56;;;;;;;15.00;11.13;;;9.40;99.90;;;;;;5058093;28;20187;-68
2022/05/02 04:03:21;;;;;;;8.23;5.83;;;9.50;99.90;;;;;;5042150;28;20219;-67
2022/05/02 04:05:47;;;;;;;7.47;5.63;;;9.50;99.90;;;;;;5054669;28;20191;-68
2022/05/02 04:08:12;;;;;;;6.50;5.67;;;9.40;99.90;;;;;;5040748;28;20213;-68
2022/05/02 04:10:38;;;;;;;9.30;6.03;;;9.40;99.90;;;;;;5059881;28;20215;-67
2022/05/02 04:13:04;;;;;;;9.00;5.53;;;9.40;99.90;;;;;;5052035;28;20198;-69
2022/05/02 04:15:29;;;;;;;9.00;5.77;;;9.30;99.90;;;;;;5063651;28;20215;-69
2022/05/02 04:17:56;;;;;;;6.30;5.10;;;9.30;99.90;;;;;;5045301;28;20666;-72
2022/05/02 04:20:22;;;;;;;8.27;6.40;;;9.20;99.90;;;;;;5048639;28;20200;-70
2022/05/02 04:22:47;;;;;;;7.90;5.17;;;9.20;99.90;;;;;;5050879;28;20199;-68
2022/05/02 04:25:13;;;;;;;7.83;5.63;;;9.10;99.90;;;;;;5053087;28;20547;-68
2022/05/02 04:27:38;;;;;;;6.50;4.37;;;9.10;99.90;;;;;;5049002;28;20236;-67
2022/05/02 04:30:05;;;;;;;8.33;4.80;;;9.00;99.90;;;;;;5045816;28;20835;-68
2022/05/02 04:32:30;;;;;;;9.50;5.03;;;9.00;99.90;;;;;;5051157;28;20701;-66
2022/05/02 04:34:58;;;;;;;7.57;5.00;;;9.10;99.90;;;;;;5038321;28;20213;-67
2022/05/02 04:37:24;;;;;;;5.20;4.50;;;9.10;99.90;;;;;;5041590;28;20214;-68
2022/05/02 04:39:51;;;;;;;5.47;4.77;;;9.10;99.90;;;;;;5039242;28;20180;-68
2022/05/02 04:42:17;;;;;;;9.97;4.90;;;9.10;99.90;;;;;;5056214;28;20296;-68
2022/05/02 04:44:42;;;;;;;5.60;5.00;;;9.10;99.90;;;;;;5034989;28;20646;-68
2022/05/02 04:47:08;;;;;;;7.10;4.73;;;9.20;99.90;;;;;;5047661;28;20227;-68
2022/05/02 04:49:34;;;;;;;5.43;4.93;;;9.30;99.90;;;;;;5035742;28;20195;-68
2022/05/02 04:51:59;;;;;;;9.60;5.83;;;9.40;99.90;;;;;;5054299;28;20226;-68
2022/05/02 04:54:25;;;;;;;7.20;4.83;;;9.40;99.90;;;;;;5033625;28;20370;-68
2022/05/02 04:56:50;;;;;;;7.23;5.53;;;9.40;99.90;;;;;;5058646;28;20188;-68
2022/05/02 04:59:15;;;;;;;10.43;5.13;;;9.40;99.90;;;;;;5039087;28;20234;-69
2022/05/02 05:01:41;;;;;;;6.57;5.87;;;9.40;99.90;;;;;;5054020;28;20290;-69
2022/05/02 05:04:07;;;;;;;6.87;4.77;;;9.50;99.90;;;;;;5030944;28;20274;-69
2022/05/02 05:06:33;;;;;;;5.53;5.00;;;9.50;99.90;;;;;;5045792;28;20188;-69
2022/05/02 05:08:58;;;;;;;7.37;5.60;;;9.60;99.90;;;;;;5035516;28;20214;-69
2022/05/02 05:11:50;;;;;;;9.03;5.77;;;9.60;99.90;;;;;;5055691;28;20195;-69
2022/05/02 05:17:30;;;;;;;8.13;6.57;;;9.60;99.90;;;;;;5049932;28;20652;-69
2022/05/02 05:20:12;;;;;;;7.20;6.47;;;9.80;99.90;;;;;;5035304;28;20386;-69
2022/05/02 05:22:53;;;;;;;8.47;5.93;;;9.90;99.90;;;;;;5024003;28;20667;-69
2022/05/02 05:25:48;;;;;;;11.40;6.87;;;9.90;99.90;;;;;;5045746;28;20335;-69
2022/05/02 05:28:21;;;;;;;8.03;6.70;;;10.00;99.90;;;;;;5023238;28;20227;-68
2022/05/02 05:30:51;;;;;;;9.07;7.40;;;10.00;99.90;;;;;;5029739;28;20631;-68
2022/05/02 05:33:34;;;;;;;11.97;7.80;;;10.20;99.90;;;;;;5027484;28;20648;-69
2022/05/02 05:36:32;;;;;;;8.23;6.50;;;10.40;99.90;;;;;;5035630;28;20275;-68
2022/05/02 05:39:10;;;;;;;6.37;5.47;;;10.70;99.90;;;;;;5032397;28;20208;-69
2022/05/02 05:41:47;;;;;;;11.67;6.40;;;10.80;99.90;;;;;;5059137;28;20188;-68
2022/05/02 05:44:41;;;;;;;14.27;8.30;;;10.90;99.90;;;;;;5037236;28;21044;-68
2022/05/02 05:47:32;;;;;;;7.83;5.73;;;10.90;99.80;;;;;;5030188;28;20204;-68
2022/05/02 05:50:16;;;;;;;7.50;6.03;;;10.90;99.60;;;;;;5032702;28;20235;-68
2022/05/02 05:53:07;;;;;;;5.80;5.27;;;10.90;99.60;;;;;;5039864;28;20229;-67
2022/05/02 05:56:10;;;;;;;6.80;4.70;;;11.00;99.00;;;;;;5037641;28;20214;-67
2022/05/02 05:59:12;;;;;;;10.57;5.37;;;11.20;99.00;;;;;;5038480;28;20204;-67
2022/05/02 06:01:56;;;;;;;7.17;5.83;;;11.30;98.60;;;;;;5049428;28;20217;-67
2022/05/02 06:04:26;;;;;;;10.97;5.10;;;11.30;98.10;;;;;;5034129;28;20194;-67
2022/05/02 06:06:53;;;;;;;6.03;5.43;;;11.40;98.10;;;;;;5049610;28;20253;-68
2022/05/02 06:09:20;;;;;;;5.40;4.87;;;11.50;97.40;;;;;;5024563;28;20183;-68
2022/05/02 06:11:47;;;;;;;7.77;5.17;;;11.60;97.20;;;;;;5038865;28;20850;-66
2022/05/02 06:14:14;;;;;;;6.03;4.63;;;11.60;96.60;;;;;;5034197;28;20260;-67
2022/05/02 06:19:28;;;;;;;5.73;4.77;;;11.60;96.50;;;;;;5040413;28;20229;-68
2022/05/02 06:21:55;;;;;;;6.40;5.37;;;11.60;96.00;;;;;;5051451;28;20190;-69
2022/05/02 06:24:25;;;;;;;7.60;5.17;;;11.70;95.70;;;;;;5025052;28;20648;-69
2022/05/02 06:26:52;;;;;;;6.53;4.90;;;11.80;95.20;;;;;;5045457;28;20750;-69
2022/05/02 06:29:20;;;;;;;10.83;5.00;;;11.90;94.90;;;;;;5037141;28;20268;-69
2022/05/02 06:31:51;;;;;;;4.70;4.00;;;11.90;94.80;;;;;;5054900;28;20934;-68
2022/05/02 06:34:27;;;;;;;5.10;4.60;;;11.90;94.20;;;;;;5034516;28;20297;-67
2022/05/02 06:37:12;;;;;;;7.97;4.53;;;12.00;94.00;;;;;;5031235;28;20190;-69
2022/05/02 06:40:03;;;;;;;4.77;3.23;;;12.10;92.80;;;;;;5033266;28;20167;-68
2022/05/02 06:42:35;;;;;;;6.47;3.93;;;12.10;92.40;;;;;;5031061;28;20197;-70
2022/05/02 06:45:19;;;;;;;8.40;4.63;;;12.20;92.00;;;;;;5032922;28;20174;-67
2022/05/02 06:48:08;;;;;;;7.90;4.17;;;12.20;91.30;;;;;;5031494;28;20208;-67
2022/05/02 06:50:38;;;;;;;4.10;3.47;;;12.40;90.90;;;;;;5033113;28;20197;-69
2022/05/02 06:53:39;;;;;;;3.53;3.23;;;12.50;90.80;;;;;;5031531;28;21034;-69
2022/05/02 06:56:09;;;;;;;4.27;3.50;;;12.50;91.00;;;;;;5033191;28;20224;-70
2022/05/02 06:58:51;;;;;;;3.80;3.20;;;12.50;90.10;;;;;;5032346;28;20204;-67
2022/05/02 07:01:47;;;;;;;5.40;3.60;;;12.60;89.80;;;;;;5035652;28;20171;-69
2022/05/02 07:04:38;;;;;;;3.73;3.23;;;12.80;87.60;;;;;;5033632;28;20190;-68
2022/05/02 07:07:44;;;;;;;3.60;3.30;;;12.80;86.00;;;;;;5035697;28;20761;-70
2022/05/02 07:10:20;;;;;;;6.60;4.50;;;13.00;86.90;;;;;;5033559;28;20645;-70
2022/05/02 07:13:02;;;;;;;3.13;2.90;;;13.10;83.50;;;;;;5036201;28;20213;-72
2022/05/02 07:15:50;;;;;;;5.13;3.53;;;13.10;84.50;;;;;;5030018;28;20203;-73
2022/05/02 07:18:40;;;;;;;4.10;3.57;;;13.20;86.00;;;;;;5035810;28;20203;-69
2022/05/02 07:21:43;;;;;;;5.43;3.37;;;13.30;87.10;;;;;;5042092;28;20325;-70
2022/05/02 07:24:25;;;;;;;5.23;3.57;;;13.30;86.90;;;;;;5031178;28;20654;-70
2022/05/02 07:27:04;;;;;;;7.13;3.80;;;13.50;86.90;;;;;;5035926;28;20195;-70
2022/05/02 07:29:31;;;;;;;7.33;3.50;;;13.60;87.30;;;;;;5038463;28;20187;-71
2022/05/02 07:32:00;;;;;;;7.30;4.40;;;13.70;86.30;;;;;;5039527;28;20240;-71
2022/05/02 07:34:29;;;;;;;9.37;3.83;;;13.80;86.40;;;;;;5037074;28;20270;-71
2022/05/02 07:36:54;;;;;;;8.97;3.10;;;14.00;83.70;;;;;;5036253;28;20195;-73
2022/05/02 07:39:22;;;;;;;5.53;3.50;;;14.10;84.00;;;;;;5038151;28;20277;-72
2022/05/02 07:41:49;;;;;;;3.37;3.17;;;14.10;85.30;;;;;;5037914;28;20267;-70
2022/05/02 07:44:17;;;;;;;5.33;3.73;;;14.10;84.80;;;;;;5033468;28;20194;-71
2022/05/02 07:46:45;;;;;;;9.33;3.47;;;14.10;84.40;;;;;;5051426;28;20195;-72
2022/05/02 07:49:25;;;;;;;4.53;3.63;;;14.10;84.60;;;;;;5035234;28;20285;-71
2022/05/02 07:51:53;;;;;;;6.77;3.80;;;14.20;85.20;;;;;;5038821;28;20321;-70
2022/05/02 07:54:26;;;;;;;4.33;3.40;;;14.30;86.20;;;;;;5040018;28;20207;-71
2022/05/02 07:56:58;;;;;;;3.53;2.73;;;14.30;85.40;;;;;;5038262;28;20190;-71
2022/05/02 07:59:39;;;;;;;4.80;4.07;;;14.30;84.80;;;;;;5039171;28;20187;-81
2022/05/02 08:02:05;;;;;;;6.40;3.73;;;14.60;84.80;;;;;;5030900;28;20230;-69
2022/05/02 08:04:31;;;;;;;3.63;3.33;;;14.80;85.20;;;;;;5031750;28;20557;-70
2022/05/02 08:07:18;;;;;;;5.27;3.10;;;14.90;85.10;;;;;;5059221;28;20286;-69
2022/05/02 08:09:53;;;;;;;3.87;3.33;;;14.90;84.80;;;;;;5041722;28;20207;-68
2022/05/02 08:12:36;;;;;;;6.67;3.70;;;14.80;83.40;;;;;;5038476;28;20297;-70
2022/05/02 08:15:08;;;;;;;5.00;3.53;;;14.90;82.90;;;;;;5032652;28;20212;-70
2022/05/02 08:18:09;;;;;;;4.30;2.97;;;14.90;83.80;;;;;;5036850;28;20207;-71
2022/05/02 08:20:50;;;;;;;3.77;3.37;;;14.90;83.30;;;;;;5005756;28;20209;-71
2022/05/02 08:27:15;;;;;;;5.33;4.07;;;15.00;84.40;;;;;;5040162;28;20216;-71
2022/05/02 08:30:03;;;;;;;4.77;3.07;;;15.10;83.80;;;;;;5041458;28;20190;-71
2022/05/02 08:32:42;;;;;;;6.03;2.97;;;15.10;83.80;;;;;;5023679;28;20234;-71
2022/05/02 08:35:18;;;;;;;4.47;3.70;;;15.30;83.00;;;;;;5042425;28;20234;-71
2022/05/02 08:37:46;;;;;;;3.53;3.23;;;15.20;82.00;;;;;;5035371;28;20290;-72
2022/05/02 08:40:23;;;;;;;4.47;3.50;;;15.20;81.90;;;;;;5049562;28;20190;-72
2022/05/02 08:43:04;;;;;;;3.83;3.07;;;15.30;82.50;;;;;;5040288;28;20199;-72
2022/05/02 08:45:40;;;;;;;5.43;3.50;;;15.00;82.00;;;;;;5040191;28;20674;-72
2022/05/02 08:48:35;;;;;;;7.10;3.37;;;15.30;82.70;;;;;;5042482;28;20899;-73
2022/05/02 08:51:29;;;;;;;4.73;3.97;;;15.60;83.20;;;;;;5043527;28;20221;-72
2022/05/02 08:54:13;;;;;;;3.10;2.80;;;15.70;83.20;;;;;;5032261;28;20211;-72
2022/05/02 08:57:06;;;;;;;3.53;3.17;;;15.80;82.10;;;;;;5046652;28;20276;-71
2022/05/02 09:00:07;;;;;;;4.77;3.70;;;15.80;80.60;;;;;;5039370;28;20179;-72
2022/05/02 09:03:30;;;;;;;5.30;3.57;;;15.80;81.40;;;;;;5049124;28;20578;-72
2022/05/02 09:06:49;;;;;;;6.40;3.80;;;15.80;82.10;;;;;;5034678;28;20256;-73
2022/05/02 09:09:51;;;;;;;4.23;2.93;;;15.90;80.20;;;;;;5032851;28;20196;-72
2022/05/02 09:12:35;;;;;;;4.67;3.47;;;15.90;82.50;;;;;;5039220;28;20357;-71
2022/05/02 09:15:46;;;;;;;4.87;3.33;;;16.00;81.20;;;;;;5028629;28;20310;-71
2022/05/02 09:18:39;;;;;;;5.80;3.27;;;16.20;79.90;;;;;;5037414;28;20218;-72
2022/05/02 09:21:24;;;;;;;6.00;3.47;;;16.20;81.20;;;;;;5037320;28;20206;-70
2022/05/02 09:24:05;;;;;;;7.07;3.53;;;16.40;79.50;;;;;;5036705;28;20206;-69
2022/05/02 09:27:11;;;;;;;5.10;3.10;;;16.40;79.50;;;;;;5033214;28;20242;-69
2022/05/02 09:30:01;;;;;;;5.70;2.80;;;16.80;79.70;;;;;;5033494;28;20661;-68
2022/05/02 09:32:38;;;;;;;3.27;2.97;;;16.70;77.80;;;;;;5031240;28;20214;-69
2022/05/02 09:35:04;;;;;;;4.87;3.33;;;16.80;78.50;;;;;;5039524;28;20203;-69
2022/05/02 09:37:40;;;;;;;3.50;3.17;;;16.90;76.90;;;;;;5046966;28;20545;-71
2022/05/02 09:40:14;;;;;;;3.63;3.23;;;17.00;76.70;;;;;;5031710;28;20190;-72
2022/05/02 09:43:17;;;;;;;3.73;3.23;;;16.90;75.80;;;;;;5038651;28;20234;-70
2022/05/02 09:51:40;;;;;;;6.40;3.33;;;16.30;77.10;;;;;;5045827;28;20221;-70
2022/05/02 09:57:21;;;;;;;3.57;3.27;;;16.50;76.90;;;;;;5026966;28;20284;-71
2022/05/02 10:01:06;;;;;;;4.17;3.20;;;16.70;77.90;;;;;;5044478;28;20167;-71
2022/05/02 10:02:41;;;;;;;4.57;3.80;;;16.90;77.00;;;;;;5043749;28;20211;-71
2022/05/02 10:05:08;;;;;;;5.17;3.37;;;17.20;76.10;;;;;;5037129;28;20196;-71
2022/05/02 10:07:44;;;;;;;5.07;3.60;;;17.30;76.30;;;;;;5048360;28;20558;-71
2022/05/02 10:10:17;;;;;;;5.23;3.33;;;17.50;77.30;;;;;;5033069;28;20542;-71
2022/05/02 10:13:23;;;;;;;4.50;4.03;;;17.60;74.40;;;;;;5034148;28;20207;-71
2022/05/02 10:16:23;;;;;;;5.77;3.67;;;17.70;73.40;;;;;;5040377;28;20212;-70
2022/05/02 10:19:23;;;;;;;5.07;3.73;;;17.60;74.50;;;;;;5025883;28;20234;-70
2022/05/02 10:22:04;;;;;;;5.23;4.10;;;17.60;72.70;;;;;;5035827;28;20197;-70
2022/05/02 10:24:59;;;;;;;5.63;4.17;;;17.60;73.60;;;;;;5035064;28;20712;-70
2022/05/02 10:27:43;;;;;;;5.33;4.23;;;17.70;74.40;;;;;;5038601;28;20223;-71
2022/05/02 10:30:12;;;;;;;5.43;4.03;;;17.80;73.40;;;;;;5048172;28;20215;-70
2022/05/02 10:32:52;;;;;;;4.20;3.53;;;17.70;72.10;;;;;;5046017;28;20200;-70
2022/05/02 10:35:21;;;;;;;6.10;3.80;;;17.50;72.00;;;;;;5038443;28;20206;-71
2022/05/02 10:37:59;;;;;;;8.93;3.50;;;17.10;71.80;;;;;;5045633;28;20203;-71
2022/05/02 10:40:42;;;;;;;5.50;3.57;;;17.30;73.00;;;;;;5050969;28;20199;-72
2022/05/02 10:43:10;;;;;;;7.20;4.43;;;17.80;75.90;;;;;;5031813;28;20675;-71
2022/05/02 10:45:38;;;;;;;4.33;4.03;;;18.10;72.80;;;;;;5056872;28;20650;-70
2022/05/02 10:48:11;;;;;;;5.83;4.73;;;18.40;71.80;;;;;;5047440;28;20207;-71
2022/05/02 10:50:37;;;;;;;5.30;4.30;;;18.80;70.90;;;;;;5043118;28;20654;-72
2022/05/02 10:53:21;;;;;;;4.93;3.67;;;19.00;72.20;;;;;;5042446;28;20218;-71
2022/05/02 10:55:56;;;;;;;8.73;4.57;;;19.40;70.00;;;;;;5034972;28;20736;-70
2022/05/02 10:58:23;;;;;;;7.30;4.90;;;19.80;70.20;;;;;;5030617;28;20272;-70
2022/05/02 11:01:07;;;;;;;8.33;5.17;;;19.70;67.00;;;;;;5055672;28;20285;-71
2022/05/02 11:03:54;;;;;;;7.30;5.03;;;19.00;67.20;;;;;;5036359;28;20197;-71
2022/05/02 11:06:54;;;;;;;8.30;4.57;;;19.50;69.50;;;;;;5036010;28;20193;-70
2022/05/02 11:09:32;;;;;;;6.40;4.27;;;20.40;67.10;;;;;;5040154;28;20183;-69
2022/05/02 11:12:01;;;;;;;5.73;4.13;;;20.90;65.10;;;;;;5041068;28;20186;-71
2022/05/02 11:14:43;;;;;;;4.93;3.58;;;21.30;66.60;;;;;;5040537;28;20199;-71
2022/05/02 11:17:47;;;;;;;5.33;4.10;;;21.90;64.90;;;;;;5043508;28;20192;-71
2022/05/02 11:20:43;;;;;;;4.37;3.97;;;20.90;62.80;;;;;;5035445;28;20187;-68
2022/05/02 11:23:51;;;;;;;5.32;4.00;;;21.30;62.60;;;;;;5028327;28;20262;-69
2022/05/02 11:26:32;;;;;;;7.30;4.40;;;21.10;61.10;;;;;;5038986;28;20693;-68
2022/05/02 11:29:07;;;;;;;5.03;4.50;;;22.00;62.00;;;;;;5035297;28;20195;-70
2022/05/02 11:31:46;;;;;;;5.55;3.65;;;21.70;59.40;;;;;;5044145;28;20229;-70
2022/05/02 11:34:41;;;;;;;4.38;3.97;;;22.40;59.90;;;;;;5039570;28;20215;-69
2022/05/02 11:37:22;;;;;;;4.65;4.05;;;20.80;60.40;;;;;;5025701;28;20553;-71
2022/05/02 11:39:58;;;;;;;5.80;4.10;;;20.80;61.70;;;;;;5043420;28;20222;-70
2022/05/02 11:42:28;;;;;;;8.57;4.30;;;21.20;59.80;;;;;;5054491;28;20199;-70
2022/05/02 11:45:12;;;;;;;6.23;4.47;;;21.20;59.50;;;;;;5039588;28;20245;-70
2022/05/02 11:48:18;;;;;;;4.37;3.97;;;20.80;59.90;;;;;;5035596;28;20282;-72
2022/05/02 11:50:46;;;;;;;5.47;4.97;;;20.60;60.70;;;;;;5042765;28;20915;-71
2022/05/02 11:53:14;;;;;;;5.57;4.77;;;20.20;61.00;;;;;;5043615;28;20221;-70
2022/05/02 11:55:44;;;;;;;5.73;4.30;;;20.00;61.60;;;;;;5060130;28;20214;-70
2022/05/02 11:58:25;;;;;;;6.47;4.47;;;20.00;61.60;;;;;;5042702;28;20751;-70
2022/05/02 12:00:59;;;;;;;3.47;3.17;;;20.00;62.30;;;;;;5061637;28;20191;-70
2022/05/02 12:03:26;;;;;;;6.13;3.67;;;20.70;62.00;;;;;;5024513;28;20295;-70
2022/05/02 12:06:04;;;;;;;4.70;4.20;;;21.30;60.30;;;;;;5056297;28;20207;-73
2022/05/02 12:08:37;;;;;;;5.38;4.88;;;20.70;60.10;;;;;;5036388;28;20225;-70
2022/05/02 12:11:10;;;;;;;4.18;3.78;;;21.40;59.00;;;;;;5038988;28;20192;-68
2022/05/02 12:13:37;;;;;;;5.72;3.80;;;22.60;57.70;;;;;;5040410;28;20207;-66
2022/05/02 12:16:11;;;;;;;6.13;3.78;;;23.00;57.30;;;;;;5039166;28;20300;-67
2022/05/02 12:18:39;;;;;;;7.32;4.10;;;22.80;57.20;;;;;;5033942;28;20194;-67
2022/05/02 12:21:08;;;;;;;3.53;3.22;;;22.60;55.70;;;;;;5038578;28;20203;-68
2022/05/02 12:23:36;;;;;;;6.70;3.78;;;23.70;56.60;;;;;;5035086;28;20293;-68
2022/05/02 12:26:03;;;;;;;4.30;3.80;;;24.40;55.30;;;;;;5037511;28;20205;-66
2022/05/02 12:28:44;;;;;;;6.57;4.70;;;24.20;53.60;;;;;;5035776;28;20254;-66
2022/05/02 12:31:23;;;;;;;4.22;3.83;;;22.80;54.80;;;;;;5034467;28;20281;-66
2022/05/02 12:33:56;;;;;;;7.57;4.78;;;23.50;55.30;;;;;;5028690;28;20256;-70
2022/05/02 12:36:25;;;;;;;4.30;3.85;;;23.10;53.50;;;;;;5036038;28;20270;-70
2022/05/02 12:39:05;;;;;;;4.78;3.97;;;22.60;53.70;;;;;;5034523;28;20249;-69
2022/05/02 12:41:47;;;;;;;7.70;3.90;;;23.40;53.80;;;;;;5059814;28;20328;-71
2022/05/02 12:44:14;;;;;;;5.75;4.32;;;23.30;54.10;;;;;;5038148;28;20718;-75
2022/05/02 12:46:43;;;;;;;5.15;4.25;;;23.70;53.70;;;;;;5055157;28;20187;-70
2022/05/02 12:49:28;;;;;;;3.63;3.33;;;24.20;53.00;;;;;;5031076;28;20198;-72
2022/05/02 12:51:55;;;;;;;4.63;2.92;;;24.40;53.10;;;;;;5046259;28;20234;-70
2022/05/02 12:54:22;;;;;;;3.80;3.50;;;24.70;52.50;;;;;;5038743;28;20206;-69
2022/05/02 13:02:37;;;;;;;5.90;3.05;;;23.00;53.50;;;;;;5054734;28;20529;-74
2022/05/02 13:05:17;;;;;;;6.68;3.30;;;23.40;53.20;;;;;;5032080;28;20180;-74
2022/05/02 13:07:53;;;;;;;6.03;3.35;;;24.00;54.20;;;;;;5035859;28;20410;-74
2022/05/02 13:10:28;;;;;;;6.30;3.17;;;24.10;52.00;;;;;;5026219;28;20236;-75
2022/05/02 13:13:08;;;;;;;6.07;3.38;;;24.80;53.60;;;;;;5037824;28;20206;-75
2022/05/02 13:15:40;;;;;;;4.15;3.75;;;26.10;50.80;;;;;;5035523;28;20963;-74
2022/05/02 13:18:09;;;;;;;4.38;3.60;;;25.60;50.40;;;;;;5043679;28;20200;-75
2022/05/02 13:20:36;;;;;;;4.25;3.60;;;25.20;51.50;;;;;;5065074;28;20220;-74
2022/05/02 13:23:07;;;;;;;4.45;3.78;;;25.30;50.50;;;;;;5034820;28;20696;-75
2022/05/02 13:26:03;;;;;;;5.07;3.70;;;25.40;50.80;;;;;;5031236;28;20201;-73
2022/05/02 13:29:13;;;;;;;4.43;3.15;;;25.80;49.30;;;;;;5030666;28;20245;-74
2022/05/02 13:31:47;;;;;;;4.03;3.65;;;25.40;50.10;;;;;;5051880;28;20209;-74
2022/05/02 13:34:39;;;;;;;4.00;3.65;;;24.80;49.70;;;;;;5038607;28;20192;-84
2022/05/02 13:37:22;;;;;;;5.55;3.63;;;24.80;50.20;;;;;;5035464;28;20205;-70
2022/05/02 13:40:04;;;;;;;4.32;3.75;;;25.30;49.80;;;;;;5037406;28;20220;-74
2022/05/02 13:42:39;;;;;;;8.80;3.55;;;25.00;49.50;;;;;;5034343;28;20197;-75
2022/05/02 13:45:13;;;;;;;4.60;3.97;;;24.40;51.10;;;;;;5055154;28;20224;-75
2022/05/02 13:48:13;;;;;;;7.57;3.45;;;24.50;49.50;;;;;;5029112;28;20216;-75
2022/05/02 13:50:52;;;;;;;4.82;3.83;;;25.00;50.50;;;;;;5034086;28;20175;-74
2022/05/02 13:53:34;;;;;;;4.93;3.70;;;26.10;48.10;;;;;;5029964;28;20282;-74